Time;durP1;ratioP1;P1;durP2;ratioP2;P2;SDS_P1;SDS_P2;PMS_P1;PMS_P2;Temp;Humidity;BMP_temperature;BMP_pressure;BME280_temperature;BME280_humidity;BME280_pressure;Samples;Min_cycle;Max_cycle;Signal;HPM_P1;HPM_P2
2022/09/07 00:00:29;;;;;;;;;;;26.50;99.90;;;;;;4994679;28;20416;-65
2022/09/07 00:02:55;;;;;;;;;;;26.50;99.90;;;;;;4994582;28;19913;-67
2022/09/07 00:05:21;;;;;;;;;;;26.50;99.90;;;;;;4994506;28;19933;-67
2022/09/07 00:07:47;;;;;;;;;;;26.50;99.90;;;;;;4994617;28;19909;-66
2022/09/07 00:10:14;;;;;;;;;;;26.50;99.90;;;;;;4994703;28;19906;-66
2022/09/07 00:12:40;;;;;;;;;;;26.50;99.90;;;;;;4994391;28;20363;-66
2022/09/07 00:15:08;;;;;;;;;;;26.50;99.90;;;;;;4993835;28;20285;-66
2022/09/07 00:17:35;;;;;;;;;;;26.50;99.90;;;;;;4994551;28;20343;-66
2022/09/07 00:20:01;;;;;;;;;;;26.50;99.90;;;;;;4994360;28;20001;-66
2022/09/07 00:22:28;;;;;;;;;;;26.50;99.90;;;;;;4994413;28;19906;-66
2022/09/07 00:24:54;;;;;;;;;;;26.50;99.90;;;;;;4993122;28;20350;-67
2022/09/07 00:27:20;;;;;;;;;;;26.50;99.90;;;;;;4994170;28;20009;-66
2022/09/07 00:29:46;;;;;;;;;;;26.50;99.90;;;;;;4994333;28;19996;-66
2022/09/07 00:32:12;;;;;;;;;;;26.60;99.90;;;;;;4992471;28;19997;-66
2022/09/07 00:34:38;;;;;;;;;;;26.60;99.90;;;;;;4993216;28;20322;-66
2022/09/07 00:37:04;;;;;;;;;;;26.50;99.90;;;;;;4993793;28;19906;-66
2022/09/07 00:39:30;;;;;;;;;;;26.60;99.90;;;;;;4993941;28;19909;-67
2022/09/07 00:41:56;;;;;;;;;;;26.70;99.90;;;;;;4993907;28;19906;-66
2022/09/07 00:44:31;;;;;;;;;;;26.70;99.90;;;;;;4994029;28;19909;-66
2022/09/07 00:46:58;;;;;;;;;;;26.80;99.90;;;;;;4994246;28;19906;-66
2022/09/07 00:49:24;;;;;;;;;;;26.90;99.90;;;;;;4994109;28;19906;-66
2022/09/07 00:51:52;;;;;;;;;;;27.00;99.90;;;;;;4994209;28;19906;-66
2022/09/07 00:54:21;;;;;;;;;;;27.00;99.90;;;;;;4994123;28;20010;-66
2022/09/07 00:56:48;;;;;;;;;;;27.00;99.90;;;;;;4994006;28;20013;-66
2022/09/07 00:59:15;;;;;;;;;;;26.90;99.90;;;;;;4994181;28;19913;-66
2022/09/07 01:01:42;;;;;;;;;;;27.00;99.90;;;;;;4994100;28;19913;-66
2022/09/07 01:04:08;;;;;;;;;;;27.10;99.90;;;;;;4993969;28;19948;-66
2022/09/07 01:06:35;;;;;;;;;;;27.20;99.90;;;;;;4994272;28;19906;-66
2022/09/07 01:09:08;;;;;;;;;;;27.30;99.90;;;;;;4994368;28;19952;-66
2022/09/07 01:11:35;;;;;;;;;;;27.40;99.90;;;;;;4993869;28;19937;-66
2022/09/07 01:14:02;;;;;;;;;;;27.40;99.90;;;;;;4993927;28;19906;-66
2022/09/07 01:16:48;;;;;;;;;;;27.50;99.90;;;;;;4993872;28;19910;-65
2022/09/07 01:19:16;;;;;;;;;;;27.50;99.90;;;;;;4994065;28;19912;-66
2022/09/07 01:21:43;;;;;;;;;;;27.50;99.90;;;;;;4993893;28;19913;-67
2022/09/07 01:24:19;;;;;;;;;;;27.60;99.90;;;;;;4993720;28;20379;-66
2022/09/07 01:26:45;;;;;;;;;;;27.60;99.90;;;;;;4997026;28;19913;-66
2022/09/07 01:29:17;;;;;;;;;;;27.70;99.90;;;;;;4997476;28;20374;-66
2022/09/07 01:31:53;;;;;;;;;;;27.80;99.90;;;;;;4997369;28;20374;-66
2022/09/07 01:34:21;;;;;;;;;;;27.80;99.90;;;;;;4997319;28;19913;-66
2022/09/07 01:36:55;;;;;;;;;;;27.90;99.90;;;;;;4997119;28;20482;-67
2022/09/07 01:39:25;;;;;;;;;;;28.00;99.90;;;;;;4997392;28;19910;-67
2022/09/07 01:42:03;;;;;;;;;;;28.10;99.90;;;;;;4997279;28;19910;-67
2022/09/07 01:44:36;;;;;;;;;;;28.20;99.90;;;;;;4997331;28;20378;-67
2022/09/07 01:47:07;;;;;;;;;;;28.30;99.90;;;;;;4996979;28;20347;-66
2022/09/07 01:49:33;;;;;;;;;;;28.40;99.90;;;;;;4996877;28;20251;-66
2022/09/07 01:52:04;;;;;;;;;;;28.50;99.90;;;;;;4996932;28;19913;-66
2022/09/07 01:54:38;;;;;;;;;;;28.80;99.90;;;;;;4996785;28;19910;-66
2022/09/07 01:57:07;;;;;;;;;;;28.90;99.90;;;;;;4996875;28;19905;-67
2022/09/07 01:59:38;;;;;;;;;;;28.90;99.90;;;;;;5010499;28;20285;-66
2022/09/07 02:02:08;;;;;;;;;;;28.90;99.90;;;;;;5016149;28;19913;-66
2022/09/07 02:04:54;;;;;;;;;;;29.00;99.90;;;;;;5016273;28;19971;-66
2022/09/07 02:07:28;;;;;;;;;;;29.00;99.90;;;;;;5015963;28;20079;-67
2022/09/07 02:09:58;;;;;;;;;;;29.00;99.90;;;;;;5016325;28;19912;-67
2022/09/07 02:12:44;;;;;;;;;;;28.90;99.90;;;;;;5016201;28;19905;-66
2022/09/07 02:15:13;;;;;;;;;;;29.00;99.90;;;;;;5015763;28;19916;-67
2022/09/07 02:17:46;;;;;;;;;;;29.10;99.90;;;;;;5016234;28;19905;-67
2022/09/07 02:20:32;;;;;;;;;;;29.20;99.90;;;;;;5016076;28;20278;-67
2022/09/07 02:23:01;;;;;;;;;;;29.30;99.90;;;;;;4917226;29;19998;-67
2022/09/07 02:25:31;;;;;;;;;;;29.20;99.90;;;;;;4917566;29;20002;-67
2022/09/07 02:28:03;;;;;;;;;;;29.10;99.90;;;;;;4916967;29;20402;-66
2022/09/07 02:30:29;;;;;;;;;;;29.00;99.90;;;;;;4917210;29;19998;-66
2022/09/07 02:32:55;;;;;;;;;;;29.00;99.90;;;;;;4917336;29;19907;-66
2022/09/07 02:35:22;;;;;;;;;;;29.10;99.90;;;;;;4917293;29;19962;-67
2022/09/07 02:37:49;;;;;;;;;;;29.00;99.90;;;;;;4916477;29;19918;-67
2022/09/07 02:40:15;;;;;;;;;;;28.90;99.90;;;;;;4917137;29;19911;-67
2022/09/07 02:42:42;;;;;;;;;;;28.90;99.90;;;;;;4917121;29;19907;-67
2022/09/07 02:45:09;;;;;;;;;;;29.00;99.90;;;;;;4917149;29;19929;-67
2022/09/07 02:47:44;;;;;;;;;;;29.10;99.90;;;;;;4917049;29;19931;-67
2022/09/07 02:50:11;;;;;;;;;;;29.10;99.90;;;;;;4917025;29;19911;-67
2022/09/07 02:52:44;;;;;;;;;;;29.30;99.90;;;;;;4925994;28;19933;-67
2022/09/07 02:55:10;;;;;;;;;;;29.30;99.90;;;;;;5015365;28;19952;-67
2022/09/07 02:57:38;;;;;;;;;;;29.40;99.90;;;;;;5015382;28;19912;-67
2022/09/07 03:00:08;;;;;;;;;;;29.30;99.90;;;;;;5015148;28;19960;-67
2022/09/07 03:02:42;;;;;;;;;;;29.40;99.90;;;;;;5015194;28;19906;-66
2022/09/07 03:05:13;;;;;;;;;;;29.30;99.90;;;;;;5014986;28;19905;-67
2022/09/07 03:07:46;;;;;;;;;;;29.50;99.90;;;;;;5015252;28;19905;-66
2022/09/07 03:10:12;;;;;;;;;;;29.50;99.90;;;;;;5015316;28;20282;-66
2022/09/07 03:12:40;;;;;;;;;;;29.50;99.90;;;;;;5014936;28;19949;-65
2022/09/07 03:15:06;;;;;;;;;;;29.60;99.90;;;;;;5014932;28;20003;-66
2022/09/07 03:17:33;;;;;;;;;;;29.50;99.90;;;;;;5014867;28;19913;-65
2022/09/07 03:19:59;;;;;;;;;;;29.50;99.90;;;;;;5014789;28;19909;-66
2022/09/07 03:22:25;;;;;;;;;;;29.40;99.90;;;;;;5014757;28;19906;-66
2022/09/07 03:24:51;;;;;;;;;;;29.40;99.90;;;;;;5014721;28;19963;-65
2022/09/07 03:27:17;;;;;;;;;;;29.50;99.90;;;;;;5014429;28;20371;-67
2022/09/07 03:29:43;;;;;;;;;;;29.50;99.90;;;;;;5014679;28;19951;-66
2022/09/07 03:32:09;;;;;;;;;;;29.50;99.90;;;;;;5014583;28;20000;-66
2022/09/07 03:34:35;;;;;;;;;;;29.40;99.90;;;;;;5014506;28;19944;-66
2022/09/07 03:37:02;;;;;;;;;;;29.30;99.90;;;;;;5014545;28;20272;-66
2022/09/07 03:39:29;;;;;;;;;;;29.40;99.90;;;;;;5014587;28;19906;-70
2022/09/07 03:41:55;;;;;;;;;;;29.40;99.90;;;;;;5014531;28;19960;-70
2022/09/07 03:44:21;;;;;;;;;;;29.50;99.90;;;;;;5014510;28;19905;-67
2022/09/07 03:46:47;;;;;;;;;;;29.70;99.90;;;;;;5014369;28;19910;-66
2022/09/07 03:49:14;;;;;;;;;;;29.90;99.90;;;;;;5013483;28;19905;-65
2022/09/07 03:51:40;;;;;;;;;;;29.90;99.90;;;;;;5008106;28;20470;-66
2022/09/07 03:54:07;;;;;;;;;;;29.90;99.90;;;;;;5014920;28;20371;-64
2022/09/07 03:56:33;;;;;;;;;;;29.90;99.90;;;;;;4996926;28;19909;-65
2022/09/07 03:58:59;;;;;;;;;;;29.80;99.90;;;;;;4994741;28;19905;-66
2022/09/07 04:01:25;;;;;;;;;;;29.80;99.90;;;;;;4994749;28;20007;-67
2022/09/07 04:03:52;;;;;;;;;;;29.90;99.90;;;;;;4994650;28;19906;-67
2022/09/07 04:06:18;;;;;;;;;;;30.00;99.90;;;;;;4994537;28;19956;-67
2022/09/07 04:08:44;;;;;;;;;;;30.10;99.90;;;;;;4994591;28;19906;-66
2022/09/07 04:11:12;;;;;;;;;;;30.20;99.90;;;;;;4994362;28;20282;-68
2022/09/07 04:13:39;;;;;;;;;;;30.20;99.90;;;;;;4994171;28;20275;-67
2022/09/07 04:16:16;;;;;;;;;;;30.10;99.90;;;;;;4994151;28;20279;-67
2022/09/07 04:18:42;;;;;;;;;;;30.00;99.90;;;;;;4994127;28;19906;-67
2022/09/07 04:21:09;;;;;;;;;;;29.90;99.90;;;;;;4994075;28;20363;-68
2022/09/07 04:23:38;;;;;;;;;;;29.90;99.90;;;;;;4994015;28;19993;-68
2022/09/07 04:26:04;;;;;;;;;;;29.80;99.90;;;;;;4994382;28;19913;-67
2022/09/07 04:28:30;;;;;;;;;;;29.80;99.90;;;;;;4996416;28;19913;-67
2022/09/07 04:31:00;;;;;;;;;;;29.80;99.90;;;;;;5002654;28;20038;-65
2022/09/07 04:33:27;;;;;;;;;;;29.80;99.90;;;;;;4998088;28;20355;-66
2022/09/07 04:35:53;;;;;;;;;;;29.70;99.90;;;;;;5000922;28;19980;-68
2022/09/07 04:38:19;;;;;;;;;;;29.80;99.90;;;;;;4994278;28;19905;-68
2022/09/07 04:40:45;;;;;;;;;;;29.70;99.90;;;;;;4994241;28;19913;-75
2022/09/07 04:43:11;;;;;;;;;;;29.50;99.90;;;;;;4994072;28;20001;-67
2022/09/07 04:45:38;;;;;;;;;;;29.50;99.90;;;;;;4994166;28;19952;-68
2022/09/07 04:48:04;;;;;;;;;;;29.40;99.90;;;;;;4994172;28;19957;-68
2022/09/07 04:50:31;;;;;;;;;;;29.30;99.90;;;;;;5002352;28;19948;-67
2022/09/07 04:52:57;;;;;;;;;;;29.20;99.90;;;;;;5012573;28;19913;-66
2022/09/07 04:55:23;;;;;;;;;;;29.00;99.90;;;;;;5012511;28;20281;-66
2022/09/07 04:57:49;;;;;;;;;;;28.80;99.90;;;;;;5012275;28;19912;-68
2022/09/07 05:00:15;;;;;;;;;;;28.70;99.90;;;;;;5013790;28;20378;-68
2022/09/07 05:02:42;;;;;;;;;;;28.70;99.90;;;;;;5014732;28;19909;-67
2022/09/07 05:05:08;;;;;;;;;;;28.60;99.90;;;;;;5016002;28;19909;-67
2022/09/07 05:07:34;;;;;;;;;;;28.50;99.90;;;;;;5016228;28;20345;-69
2022/09/07 05:10:00;;;;;;;;;;;28.50;99.90;;;;;;5016241;28;19912;-68
2022/09/07 05:12:26;;;;;;;;;;;28.40;99.90;;;;;;5015994;28;19914;-66
2022/09/07 05:14:52;;;;;;;;;;;28.40;99.90;;;;;;5016095;28;19909;-64
2022/09/07 05:17:18;;;;;;;;;;;28.30;99.90;;;;;;5016008;28;19942;-64
2022/09/07 05:19:45;;;;;;;;;;;28.30;99.90;;;;;;5015987;28;19909;-66
2022/09/07 05:22:11;;;;;;;;;;;28.20;99.90;;;;;;5014835;28;19913;-64
2022/09/07 05:24:37;;;;;;;;;;;28.20;99.90;;;;;;5015728;28;19909;-67
2022/09/07 05:27:03;;;;;;;;;;;28.10;99.90;;;;;;5015816;28;19920;-66
2022/09/07 05:29:30;;;;;;;;;;;28.20;99.90;;;;;;5015565;28;19905;-65
2022/09/07 05:31:56;;;;;;;;;;;28.10;99.90;;;;;;5015830;28;20358;-65
2022/09/07 05:34:22;;;;;;;;;;;28.10;99.90;;;;;;5015815;28;20282;-65
2022/09/07 05:36:48;;;;;;;;;;;28.10;99.90;;;;;;5015391;28;19921;-66
2022/09/07 05:39:14;;;;;;;;;;;28.10;99.90;;;;;;5015696;28;19910;-67
2022/09/07 05:41:41;;;;;;;;;;;28.00;99.90;;;;;;5015607;28;20359;-66
2022/09/07 05:44:07;;;;;;;;;;;28.10;99.90;;;;;;5015393;28;20350;-66
2022/09/07 05:46:33;;;;;;;;;;;28.10;99.90;;;;;;5015474;28;19905;-65
2022/09/07 05:49:00;;;;;;;;;;;28.10;99.90;;;;;;5015495;28;20282;-66
2022/09/07 05:51:26;;;;;;;;;;;28.10;99.90;;;;;;5015341;28;19913;-66
2022/09/07 05:53:52;;;;;;;;;;;28.20;99.90;;;;;;5013814;28;19928;-65
2022/09/07 05:56:18;;;;;;;;;;;28.20;99.90;;;;;;5015172;28;20000;-66
2022/09/07 05:58:47;;;;;;;;;;;28.40;99.90;;;;;;5012879;28;19949;-66
2022/09/07 06:01:13;;;;;;;;;;;28.60;99.90;;;;;;5014287;28;20382;-66
2022/09/07 06:03:40;;;;;;;;;;;28.70;99.90;;;;;;5014009;28;19953;-66
2022/09/07 06:06:10;;;;;;;;;;;28.80;99.90;;;;;;5015026;28;19916;-69
2022/09/07 06:08:37;;;;;;;;;;;28.80;99.90;;;;;;5012951;28;19909;-70
2022/09/07 06:11:06;;;;;;;;;;;28.90;99.90;;;;;;5014591;28;19968;-71
2022/09/07 06:13:33;;;;;;;;;;;29.00;99.90;;;;;;5014558;28;19905;-72
2022/09/07 06:16:00;;;;;;;;;;;29.20;99.90;;;;;;5013120;28;20363;-70
2022/09/07 06:18:41;;;;;;;;;;;29.20;99.90;;;;;;5014888;28;19928;-71
2022/09/07 06:21:08;;;;;;;;;;;29.30;99.90;;;;;;5014121;28;19920;-70
2022/09/07 06:23:35;;;;;;;;;;;29.40;99.90;;;;;;5012275;28;20374;-69
2022/09/07 06:26:02;;;;;;;;;;;29.50;99.90;;;;;;5015117;28;19909;-69
2022/09/07 06:28:31;;;;;;;;;;;29.50;99.90;;;;;;5014728;28;19921;-69
2022/09/07 06:30:59;;;;;;;;;;;29.40;99.90;;;;;;5015691;28;19941;-69
2022/09/07 06:33:25;;;;;;;;;;;29.30;99.90;;;;;;5015129;28;19917;-71
2022/09/07 06:35:57;;;;;;;;;;;29.20;99.90;;;;;;5015306;28;19917;-69
2022/09/07 06:38:23;;;;;;;;;;;29.00;99.90;;;;;;5017445;28;20235;-70
2022/09/07 06:40:49;;;;;;;;;;;28.80;99.90;;;;;;5016557;28;19905;-72
2022/09/07 06:43:15;;;;;;;;;;;28.70;99.90;;;;;;5012618;28;20098;-68
2022/09/07 06:45:42;;;;;;;;;;;28.50;99.90;;;;;;5014680;28;19905;-68
2022/09/07 06:48:08;;;;;;;;;;;28.30;99.90;;;;;;5014978;28;19909;-66
2022/09/07 06:50:34;;;;;;;;;;;27.70;99.90;;;;;;5014036;28;20270;-64
2022/09/07 06:53:00;;;;;;;;;;;27.30;99.90;;;;;;5014432;28;19956;-70
2022/09/07 06:55:26;;;;;;;;;;;26.90;99.90;;;;;;5014913;28;19917;-65
2022/09/07 06:57:53;;;;;;;;;;;26.80;99.90;;;;;;5014240;28;19909;-64
2022/09/07 07:00:19;;;;;;;;;;;26.70;99.90;;;;;;5014272;28;20259;-66
2022/09/07 07:02:45;;;;;;;;;;;26.60;99.90;;;;;;5014484;28;19906;-65
2022/09/07 07:05:11;;;;;;;;;;;26.80;99.90;;;;;;5014307;28;19920;-65
2022/09/07 07:07:37;;;;;;;;;;;26.80;99.90;;;;;;5014936;28;19909;-65
2022/09/07 07:10:04;;;;;;;;;;;27.00;99.90;;;;;;5014951;28;19905;-66
2022/09/07 07:12:30;;;;;;;;;;;27.00;99.90;;;;;;5014418;28;19909;-69
2022/09/07 07:14:56;;;;;;;;;;;26.80;99.90;;;;;;5014087;28;20255;-71
2022/09/07 07:17:22;;;;;;;;;;;26.70;99.90;;;;;;5014286;28;19915;-67
2022/09/07 07:19:48;;;;;;;;;;;26.80;99.90;;;;;;5014146;28;20278;-67
2022/09/07 07:22:14;;;;;;;;;;;26.70;99.90;;;;;;5014126;28;19909;-69
2022/09/07 07:24:41;;;;;;;;;;;26.70;99.90;;;;;;5014064;28;19913;-69
2022/09/07 07:27:07;;;;;;;;;;;26.80;99.90;;;;;;5013509;28;19910;-68
2022/09/07 07:29:33;;;;;;;;;;;26.90;99.90;;;;;;5014107;28;20165;-67
2022/09/07 07:32:00;;;;;;;;;;;27.00;99.90;;;;;;5013832;28;19917;-68
2022/09/07 07:34:26;;;;;;;;;;;27.00;99.90;;;;;;5013837;28;19910;-68
2022/09/07 07:36:52;;;;;;;;;;;27.00;99.90;;;;;;5013689;28;19914;-70
2022/09/07 07:39:19;;;;;;;;;;;27.00;99.90;;;;;;4996023;28;20278;-70
2022/09/07 07:41:45;;;;;;;;;;;27.10;99.90;;;;;;5012154;28;19905;-69
2022/09/07 07:44:12;;;;;;;;;;;27.10;99.90;;;;;;4996296;28;19913;-68
2022/09/07 07:46:38;;;;;;;;;;;27.20;99.90;;;;;;5014492;28;19952;-68
2022/09/07 07:49:04;;;;;;;;;;;27.20;99.90;;;;;;5014559;28;20396;-68
2022/09/07 07:51:30;;;;;;;;;;;27.30;99.90;;;;;;5014292;28;20104;-68
2022/09/07 07:53:56;;;;;;;;;;;27.30;99.90;;;;;;5014444;28;19911;-68
2022/09/07 07:56:22;;;;;;;;;;;27.20;99.90;;;;;;5008043;28;19916;-68
2022/09/07 07:58:51;;;;;;;;;;;27.20;99.90;;;;;;4998039;28;19916;-68
2022/09/07 08:01:17;;;;;;;;;;;27.10;99.90;;;;;;4994671;28;19906;-68
2022/09/07 08:03:44;;;;;;;;;;;27.10;99.90;;;;;;4993830;28;20279;-68
2022/09/07 08:06:15;;;;;;;;;;;27.00;99.90;;;;;;4994362;28;19905;-69
2022/09/07 08:08:42;;;;;;;;;;;27.00;99.90;;;;;;4994600;28;20359;-69
2022/09/07 08:11:09;;;;;;;;;;;27.00;99.90;;;;;;4994510;28;19944;-69
2022/09/07 08:13:36;;;;;;;;;;;27.10;99.90;;;;;;4994399;28;19997;-69
2022/09/07 08:16:04;;;;;;;;;;;27.20;99.90;;;;;;4996916;28;19910;-68
2022/09/07 08:18:32;;;;;;;;;;;27.20;99.90;;;;;;5003060;28;19906;-69
2022/09/07 08:20:59;;;;;;;;;;;27.30;99.90;;;;;;4994345;28;19913;-68
2022/09/07 08:23:25;;;;;;;;;;;27.30;99.90;;;;;;4994461;28;19905;-68
2022/09/07 08:25:53;;;;;;;;;;;27.40;99.90;;;;;;4994391;28;19959;-69
2022/09/07 08:28:20;;;;;;;;;;;27.50;99.90;;;;;;5008396;28;19921;-70
2022/09/07 08:30:47;;;;;;;;;;;27.50;99.90;;;;;;5013658;28;20397;-68
2022/09/07 08:33:13;;;;;;;;;;;27.60;99.90;;;;;;5013365;28;20004;-66
2022/09/07 08:35:39;;;;;;;;;;;27.60;99.90;;;;;;5015823;28;19953;-66
2022/09/07 08:38:06;;;;;;;;;;;27.60;99.90;;;;;;5018016;28;19905;-67
2022/09/07 08:40:35;;;;;;;;;;;27.60;99.90;;;;;;5017841;28;19905;-66
2022/09/07 08:43:11;;;;;;;;;;;27.60;99.90;;;;;;5018002;28;19932;-66
2022/09/07 08:45:40;;;;;;;;;;;27.70;99.90;;;;;;5017010;28;20323;-64
2022/09/07 08:48:09;;;;;;;;;;;27.70;99.90;;;;;;5008916;28;19956;-65
2022/09/07 08:50:35;;;;;;;;;;;27.80;99.90;;;;;;4998466;28;19914;-66
2022/09/07 08:53:07;;;;;;;;;;;27.80;99.90;;;;;;4998081;28;19952;-67
2022/09/07 08:55:53;;;;;;;;;;;27.80;99.90;;;;;;4997565;28;19909;-68
2022/09/07 08:58:23;;;;;;;;;;;27.80;99.90;;;;;;4900142;29;19943;-65
2022/09/07 09:00:50;;;;;;;;;;;27.80;99.90;;;;;;4900077;29;20006;-66
2022/09/07 09:03:20;;;;;;;;;;;27.90;99.90;;;;;;4900283;29;19907;-65
2022/09/07 09:05:54;;;;;;;;;;;27.80;99.90;;;;;;4900038;29;19911;-65
2022/09/07 09:08:35;;;;;;;;;;;27.90;99.90;;;;;;4909683;29;19947;-65
2022/09/07 09:11:02;;;;;;;;;;;27.90;99.90;;;;;;4899957;29;20440;-64
2022/09/07 09:13:49;;;;;;;;;;;27.90;99.90;;;;;;4899739;29;20289;-67
2022/09/07 09:16:19;;;;;;;;;;;27.90;99.90;;;;;;4898859;29;20296;-67
2022/09/07 09:18:47;;;;;;;;;;;27.90;99.90;;;;;;4906970;29;19907;-67
2022/09/07 09:21:15;;;;;;;;;;;28.00;99.90;;;;;;4909970;29;19907;-67
2022/09/07 09:23:43;;;;;;;;;;;27.90;99.90;;;;;;4907578;29;19911;-67
2022/09/07 09:26:09;;;;;;;;;;;27.90;99.90;;;;;;4905753;29;19918;-66
2022/09/07 09:28:35;;;;;;;;;;;27.90;99.90;;;;;;4908172;29;19998;-67
2022/09/07 09:31:01;;;;;;;;;;;27.90;99.90;;;;;;4906324;29;19911;-66
2022/09/07 09:33:28;;;;;;;;;;;27.90;99.90;;;;;;4906610;29;20010;-69
2022/09/07 09:35:56;;;;;;;;;;;28.00;99.90;;;;;;4906542;29;19915;-64
2022/09/07 09:38:33;;;;;;;;;;;28.10;99.90;;;;;;4906908;29;19923;-67
2022/09/07 09:41:02;;;;;;;;;;;28.00;99.90;;;;;;4905641;29;20361;-67
2022/09/07 09:43:38;;;;;;;;;;;28.10;99.90;;;;;;4904909;29;20373;-67
2022/09/07 09:46:14;;;;;;;;;;;28.00;99.90;;;;;;4907542;29;19958;-67
2022/09/07 09:48:41;;;;;;;;;;;27.90;99.90;;;;;;4905822;29;19911;-68
2022/09/07 09:51:08;;;;;;;;;;;27.90;99.90;;;;;;4904909;29;19945;-68
2022/09/07 09:53:36;;;;;;;;;;;28.00;99.90;;;;;;4920003;28;19907;-66
2022/09/07 09:56:03;;;;;;;;;;;28.00;99.90;;;;;;4994072;28;20409;-67
2022/09/07 09:58:32;;;;;;;;;;;28.00;99.90;;;;;;4996513;28;20013;-67
2022/09/07 10:01:00;;;;;;;;;;;28.10;99.90;;;;;;4995682;28;19906;-67
2022/09/07 10:03:28;;;;;;;;;;;28.00;99.90;;;;;;4994726;28;19937;-67
2022/09/07 10:05:54;;;;;;;;;;;28.00;99.90;;;;;;4995998;28;20157;-67
2022/09/07 10:08:23;;;;;;;;;;;28.00;99.90;;;;;;4993835;28;19948;-71
2022/09/07 10:10:55;;;;;;;;;;;27.90;99.90;;;;;;4996303;28;19916;-69
2022/09/07 10:13:23;;;;;;;;;;;27.90;99.90;;;;;;4996753;28;20410;-70
2022/09/07 10:15:50;;;;;;;;;;;27.90;99.90;;;;;;4996893;28;19921;-69
2022/09/07 10:18:20;;;;;;;;;;;28.00;99.90;;;;;;4996209;28;19991;-68
2022/09/07 10:20:46;;;;;;;;;;;27.90;99.90;;;;;;4995220;28;20364;-66
2022/09/07 10:23:23;;;;;;;;;;;27.80;99.90;;;;;;4995909;28;19909;-68
2022/09/07 10:25:49;;;;;;;;;;;27.70;99.90;;;;;;4994680;28;19912;-67
2022/09/07 10:28:18;;;;;;;;;;;27.70;99.90;;;;;;4995981;28;19917;-67
2022/09/07 10:30:54;;;;;;;;;;;27.70;99.90;;;;;;4994095;28;19905;-67
2022/09/07 10:33:20;;;;;;;;;;;27.80;99.90;;;;;;5008895;28;19943;-68
2022/09/07 10:35:49;;;;;;;;;;;27.80;99.90;;;;;;5015319;28;19913;-67
2022/09/07 10:38:18;;;;;;;;;;;27.90;99.90;;;;;;5015352;28;19906;-67
2022/09/07 10:40:50;;;;;;;;;;;27.80;99.90;;;;;;4997048;28;19996;-67
2022/09/07 10:43:24;;;;;;;;;;;27.80;99.90;;;;;;5015756;28;19912;-67
2022/09/07 10:45:55;;;;;;;;;;;27.70;99.90;;;;;;5013816;28;20049;-67
2022/09/07 10:48:23;;;;;;;;;;;27.80;99.90;;;;;;5013219;28;20285;-67
2022/09/07 10:50:52;;;;;;;;;;;27.80;99.90;;;;;;5014942;28;19956;-68
2022/09/07 10:53:18;;;;;;;;;;;27.70;99.90;;;;;;5015605;28;19905;-66
2022/09/07 10:55:59;;;;;;;;;;;27.70;99.90;;;;;;5015229;28;19976;-66
2022/09/07 10:58:30;;;;;;;;;;;27.60;99.90;;;;;;5013063;28;19905;-65
2022/09/07 11:01:12;;;;;;;;;;;27.70;99.90;;;;;;5015528;28;19909;-65
2022/09/07 11:03:40;;;;;;;;;;;27.80;99.90;;;;;;5015352;28;20004;-66
2022/09/07 11:06:14;;;;;;;;;;;27.80;99.90;;;;;;5015261;28;19905;-65
2022/09/07 11:08:42;;;;;;;;;;;27.90;99.90;;;;;;5015805;28;19964;-66
2022/09/07 11:11:16;;;;;;;;;;;27.90;99.90;;;;;;5014907;28;19911;-65
2022/09/07 11:13:45;;;;;;;;;;;27.90;99.90;;;;;;5012641;28;19996;-65
2022/09/07 11:16:17;;;;;;;;;;;27.80;99.90;;;;;;5015074;28;19913;-65
2022/09/07 11:18:44;;;;;;;;;;;27.80;99.90;;;;;;5012888;28;19945;-66
2022/09/07 11:21:13;;;;;;;;;;;27.80;99.90;;;;;;5015503;28;20293;-64
2022/09/07 11:23:42;;;;;;;;;;;27.90;99.90;;;;;;5013273;28;19916;-66
2022/09/07 11:26:17;;;;;;;;;;;27.90;99.90;;;;;;5013564;28;19917;-66
2022/09/07 11:28:48;;;;;;;;;;;27.90;99.90;;;;;;5014909;28;20370;-66
2022/09/07 11:31:21;;;;;;;;;;;27.90;99.90;;;;;;5014632;28;20329;-65
2022/09/07 11:33:47;;;;;;;;;;;27.80;99.90;;;;;;5012124;28;20008;-65
2022/09/07 11:36:15;;;;;;;;;;;27.80;99.90;;;;;;5013825;28;19917;-66
2022/09/07 11:38:43;;;;;;;;;;;27.80;99.90;;;;;;5013738;28;19975;-66
2022/09/07 11:41:15;;;;;;;;;;;27.70;99.90;;;;;;5013814;28;20382;-67
2022/09/07 11:43:44;;;;;;;;;;;27.70;99.90;;;;;;5013635;28;19910;-71
2022/09/07 11:46:31;;;;;;;;;;;27.80;99.90;;;;;;5012896;28;20310;-66
2022/09/07 11:48:58;;;;;;;;;;;27.80;99.90;;;;;;4927891;28;20368;-69
2022/09/07 11:51:26;;;;;;;;;;;27.80;99.90;;;;;;4925882;29;19928;-70
2022/09/07 11:53:55;;;;;;;;;;;27.90;99.90;;;;;;4920960;29;19907;-70
2022/09/07 11:56:25;;;;;;;;;;;27.90;99.90;;;;;;4899973;29;20344;-71
2022/09/07 11:59:01;;;;;;;;;;;27.90;99.90;;;;;;4927405;29;19915;-69
2022/09/07 12:01:27;;;;;;;;;;;27.90;99.90;;;;;;4934816;29;19907;-69
2022/09/07 12:03:53;;;;;;;;;;;27.80;99.90;;;;;;4934010;28;19911;-71
2022/09/07 12:06:20;;;;;;;;;;;27.70;99.90;;;;;;4934619;29;19907;-64
2022/09/07 12:08:47;;;;;;;;;;;27.70;99.90;;;;;;4934160;29;19911;-64
2022/09/07 12:11:13;;;;;;;;;;;27.70;99.90;;;;;;4933314;29;19907;-65
2022/09/07 12:13:48;;;;;;;;;;;27.80;99.90;;;;;;4923809;29;20127;-66
2022/09/07 12:16:23;;;;;;;;;;;27.70;99.90;;;;;;4924492;29;19985;-64
2022/09/07 12:18:50;;;;;;;;;;;27.70;99.90;;;;;;4939930;28;19909;-65
2022/09/07 12:21:36;;;;;;;;;;;27.70;99.90;;;;;;5003928;28;19913;-68
2022/09/07 12:24:02;;;;;;;;;;;27.70;99.90;;;;;;5012582;28;20193;-65
2022/09/07 12:26:32;;;;;;;;;;;27.70;99.90;;;;;;5013657;28;19948;-65
2022/09/07 12:28:58;;;;;;;;;;;27.60;99.90;;;;;;5014042;28;20271;-67
2022/09/07 12:31:44;;;;;;;;;;;27.70;99.90;;;;;;5013663;28;19988;-65
2022/09/07 12:34:19;;;;;;;;;;;27.80;99.90;;;;;;5010443;28;19914;-65
2022/09/07 12:36:48;;;;;;;;;;;27.70;99.90;;;;;;5013121;28;19925;-65
2022/09/07 12:39:24;;;;;;;;;;;27.60;99.90;;;;;;5012605;28;19912;-66
2022/09/07 12:41:52;;;;;;;;;;;27.50;99.90;;;;;;5008615;28;19905;-65
2022/09/07 12:44:20;;;;;;;;;;;27.50;99.90;;;;;;5013164;28;19910;-65
2022/09/07 12:46:48;;;;;;;;;;;27.60;99.90;;;;;;5013319;28;19920;-64
2022/09/07 12:49:14;;;;;;;;;;;27.60;99.90;;;;;;5013054;28;19909;-65
2022/09/07 12:51:40;;;;;;;;;;;27.60;99.90;;;;;;5014026;28;20282;-65
2022/09/07 12:54:07;;;;;;;;;;;27.50;99.90;;;;;;5013887;28;19913;-65
2022/09/07 12:56:38;;;;;;;;;;;27.40;99.90;;;;;;5013641;28;19909;-65
2022/09/07 12:59:08;;;;;;;;;;;27.40;99.90;;;;;;5014155;28;20259;-64
2022/09/07 13:01:34;;;;;;;;;;;27.50;99.90;;;;;;5014372;28;20363;-64
2022/09/07 13:04:10;;;;;;;;;;;27.60;99.90;;;;;;5013574;28;20366;-64
2022/09/07 13:06:56;;;;;;;;;;;27.60;99.90;;;;;;5013753;28;19951;-64
2022/09/07 13:09:33;;;;;;;;;;;27.70;99.90;;;;;;5012526;28;19996;-64
2022/09/07 13:12:00;;;;;;;;;;;27.60;99.90;;;;;;5009353;28;19905;-66
2022/09/07 13:14:27;;;;;;;;;;;27.50;99.90;;;;;;5002118;28;20464;-65
2022/09/07 13:17:13;;;;;;;;;;;27.50;99.90;;;;;;5013612;28;19913;-65
2022/09/07 13:19:48;;;;;;;;;;;27.40;99.90;;;;;;4915470;29;20297;-64
2022/09/07 13:22:23;;;;;;;;;;;27.30;99.90;;;;;;4915402;29;19914;-65
2022/09/07 13:24:54;;;;;;;;;;;27.20;99.90;;;;;;4908142;29;20027;-65
2022/09/07 13:27:21;;;;;;;;;;;27.20;99.90;;;;;;4916916;29;20371;-70
2022/09/07 13:29:49;;;;;;;;;;;27.20;99.90;;;;;;4927721;29;19918;-69
2022/09/07 13:32:25;;;;;;;;;;;27.30;99.90;;;;;;4926375;29;19998;-68
2022/09/07 13:34:59;;;;;;;;;;;27.40;99.90;;;;;;4926217;29;19915;-69
2022/09/07 13:37:26;;;;;;;;;;;27.40;99.90;;;;;;4924666;29;20440;-68
2022/09/07 13:39:55;;;;;;;;;;;27.30;99.90;;;;;;4927941;29;19913;-69
2022/09/07 13:42:24;;;;;;;;;;;27.20;99.90;;;;;;4920842;29;20140;-65
2022/09/07 13:44:55;;;;;;;;;;;27.20;99.90;;;;;;4927954;29;19953;-65
2022/09/07 13:47:30;;;;;;;;;;;27.20;99.90;;;;;;4924417;29;19970;-63
2022/09/07 13:50:01;;;;;;;;;;;27.20;99.90;;;;;;4926789;29;19914;-65
2022/09/07 13:52:47;;;;;;;;;;;27.30;99.90;;;;;;4925973;29;19946;-62
2022/09/07 13:55:23;;;;;;;;;;;27.50;99.90;;;;;;4869377;29;19919;-62
2022/09/07 13:57:58;;;;;;;;;;;27.50;99.90;;;;;;4948432;29;19929;-63
2022/09/07 14:00:25;;;;;;;;;;;27.50;99.90;;;;;;4953748;29;19906;-64
2022/09/07 14:02:52;;;;;;;;;;;27.40;99.90;;;;;;4953657;29;19966;-63
2022/09/07 14:05:19;;;;;;;;;;;27.40;99.90;;;;;;4948424;29;20021;-63
2022/09/07 14:07:46;;;;;;;;;;;27.50;99.90;;;;;;4956393;29;19910;-63
2022/09/07 14:10:13;;;;;;;;;;;27.60;99.90;;;;;;4956342;29;19957;-64
2022/09/07 14:12:49;;;;;;;;;;;27.60;99.90;;;;;;4954277;29;19916;-63
2022/09/07 14:15:28;;;;;;;;;;;27.60;99.90;;;;;;4956573;29;20376;-63
2022/09/07 14:18:05;;;;;;;;;;;27.60;99.90;;;;;;4956810;29;19911;-63
2022/09/07 14:20:36;;;;;;;;;;;27.60;99.90;;;;;;4956982;29;20326;-64
2022/09/07 14:23:09;;;;;;;;;;;27.60;99.90;;;;;;4957345;29;19985;-63
2022/09/07 14:25:35;;;;;;;;;;;27.50;99.90;;;;;;4955961;29;19907;-64